Paducah, KY

6:54 AM CST on January 29, 2015 (GMT -0600)
Barkley Regional | Change Station
CLOSE
Current Station
Airport
Location: Paducah,
Elevation: 410 ft
Nearby Weather Stations

Elev 410 ft 37.06 °N, 88.77 °W | Updated 1 hour ago

Clear
Clear
52 °F
Feels Like 52 °F
N
12
Wind Variable Wind from SW
Gusts 22 mph

Today
High -- | Low -- °F
--% Chance of Precip.
Yesterday
High -- | Low -- °F
Precip. -- in
6:59 AM 5:16 PM
Waxing Gibbous, 74% visible
Pressure 29.89 in
Visibility 10.0 miles
Clouds Clear
Dew Point 38 °F
Humidity 59%
Rainfall 0.00 in
Snow Depth Not available.
UV 0 out of 12
Pollen .20 out of 12
Air Quality Not available.
Flu Activity Not available.
METAR KPAH 291153Z 22010G19KT 10SM CLR 11/03 A2989 RMK AO2 SLP120 60000 T01110033 10122 20094 56007

More Conditions Fewer Conditions

Pressure 29.89 in
Visibility 10.0 miles
Clouds Clear
Dew Point 38 °F
Humidity 59%
Rainfall 0.00 in
Snow Depth Not available.
UV 0 out of 12
Pollen .20 out of 12
Air Quality Not available.
Flu Activity Not available.
METAR KPAH 291153Z 22010G19KT 10SM CLR 11/03 A2989 RMK AO2 SLP120 60000 T01110033 10122 20094 56007

More Conditions Fewer Conditions

10-Day Weather Forecast

Almanac

Astronomy

Jan. 29, 2015 Rise Set
Actual Time
Civil Twilight
Nautical Twilight
Astronomical Twilight
Moon
Length of Visible Light
Length of Day
Tomorrow will be .
, % of the Moon is Illuminated

Today's Extremes

State Highs State Lows

Community

WunderPhotos

Upload Photos

1,791,420 photos uploaded!

WunderBlogs® & News

Nearby

Air Quality

  Air Quality AQ Index Pollutant
Not available.

Snow Depth

Station Depth Elevation

Earthquake Activity

City Distance Mag. Time & Date
Minimum magnitude displayed is 2.5.

Coastal Water Temperatures

Place Temperature

Nearby Weather Stations